Peach Orchard, Missouri
Current Conditions -  °F | °C
As of 6:15 AM on Thursday 18 Dec 2014 (Local Time) from KPOF Reporting Station
Haze Haze  
Wind Chill: -2°   Ceiling: 500
Heat Index:   Visibility: 5mi
Dew Point: -1°   Wind: 6mph
Humidity: 89%   Direction: 50°NE
Pressure: 30.25"   Gusts: NA
Location:  36.4472°N, 89.9037°W
Report Text: KPOF 181215Z AUTO 05005KT 5SM BR BKN005 OVC033 01/M01 A3025 RMK AO2 T00111006
Loading
Personal Weather Stations






























Interactive Weather Map New forecast layout! Learn more

10-Day Weather Forecast

Advertisements
Track Severe Weather on mobile